createdAt,value
2023-03-20T00:02:09.184Z,98202.28
2023-03-20T00:05:22.011Z,98203.88
2023-03-20T00:08:29.717Z,98213.69
2023-03-20T00:11:48.418Z,98213.81
2023-03-20T00:14:54.014Z,98211.25
2023-03-20T00:18:01.271Z,98213.88
2023-03-20T00:21:06.947Z,98213.25
2023-03-20T00:24:13.178Z,98214.06
2023-03-20T00:27:21.596Z,98215.09
2023-03-20T00:30:32.852Z,98211.91
2023-03-20T00:33:38.417Z,98206.09
2023-03-20T00:36:44.994Z,98206.22
2023-03-20T00:39:50.597Z,98198.59
2023-03-20T00:43:05.051Z,98202.16
2023-03-20T00:46:17.487Z,98205.91
2023-03-20T00:49:29.943Z,98205.44
2023-03-20T00:52:36.231Z,98203.53
2023-03-20T00:55:44.181Z,98161.09
2023-03-20T00:58:54.250Z,98188.47
2023-03-20T01:02:00.799Z,98191.16
2023-03-20T01:05:07.237Z,98191.28
2023-03-20T01:08:18.756Z,98186.94
2023-03-20T01:11:28.014Z,98183.41
2023-03-20T01:14:37.958Z,98189.50
2023-03-20T01:17:43.300Z,98187.72
2023-03-20T01:20:53.082Z,98184.91
2023-03-20T01:23:58.441Z,98185.56
2023-03-20T01:27:06.179Z,98187.16
2023-03-20T01:30:28.564Z,98181.00
2023-03-20T01:33:34.813Z,98187.66
2023-03-20T01:36:42.146Z,98178.75
2023-03-20T01:39:48.762Z,98181.94
2023-03-20T01:42:55.057Z,98185.41
2023-03-20T01:46:21.573Z,98188.84
2023-03-20T01:50:22.554Z,98197.38
2023-03-20T01:53:33.697Z,98198.97
2023-03-20T01:56:49.841Z,98200.69
2023-03-20T02:00:06.493Z,98176.50
2023-03-20T02:03:27.559Z,98198.78
2023-03-20T02:06:48.674Z,98195.69
2023-03-20T02:10:05.458Z,98203.44
2023-03-20T02:13:21.601Z,98201.59
2023-03-20T02:16:28.169Z,98206.75
2023-03-20T02:20:14.147Z,98202.41
2023-03-20T02:24:06.345Z,98207.59
2023-03-20T02:27:31.367Z,98207.47
2023-03-20T02:31:09.208Z,98201.59
2023-03-20T02:35:26.101Z,98198.97
2023-03-20T02:39:02.697Z,98199.91
2023-03-20T02:42:23.156Z,98186.59
2023-03-20T02:45:37.895Z,98194.09
2023-03-20T02:49:04.447Z,98194.19
2023-03-20T02:52:25.357Z,98197.09
2023-03-20T02:55:47.226Z,98185.31
2023-03-20T02:59:05.637Z,98192.25
2023-03-20T03:02:19.881Z,98194.59
2023-03-20T03:05:37.972Z,98186.59
2023-03-20T03:08:54.848Z,98189.78
2023-03-20T03:12:10.940Z,98188.84
2023-03-20T03:15:26.173Z,98191.19
2023-03-20T03:18:36.906Z,98170.66
2023-03-20T03:21:44.654Z,98142.50
2023-03-20T03:24:53.922Z,98191.66
2023-03-20T03:28:12.078Z,98188.28
2023-03-20T03:31:22.083Z,98189.63
2023-03-20T03:34:28.743Z,98175.34
2023-03-20T03:37:54.188Z,98189.25
2023-03-20T03:41:21.691Z,98187.56
2023-03-20T03:44:40.003Z,98189.88
2023-03-20T03:47:55.308Z,98184.38
2023-03-20T03:51:11.856Z,98191.09
2023-03-20T03:54:37.898Z,98191.09
2023-03-20T03:58:12.117Z,98195.44
2023-03-20T04:01:27.590Z,98188.66
2023-03-20T04:04:38.672Z,98199.28
2023-03-20T04:07:48.420Z,98180.97
2023-03-20T04:10:55.921Z,98192.13
2023-03-20T04:14:02.337Z,98190.56
2023-03-20T04:17:12.164Z,98180.41
2023-03-20T04:20:19.211Z,98190.84
2023-03-20T04:23:25.958Z,98198.72
2023-03-20T04:26:32.599Z,98189.44
2023-03-20T04:29:39.299Z,98192.34
2023-03-20T04:33:07.495Z,98203.38
2023-03-20T04:36:29.596Z,98190.53
2023-03-20T04:39:36.953Z,98194.25
2023-03-20T04:42:42.448Z,98193.22
2023-03-20T04:45:49.021Z,98204.75
2023-03-20T04:48:57.274Z,98195.28
2023-03-20T04:52:07.936Z,98197.44
2023-03-20T04:55:20.008Z,98209.66
2023-03-20T04:58:26.276Z,98205.25
2023-03-20T05:01:31.966Z,98206.16
2023-03-20T05:04:41.874Z,98213.41
2023-03-20T05:07:48.074Z,98214.63
2023-03-20T05:11:02.267Z,98225.66
2023-03-20T05:14:31.702Z,98225.75
2023-03-20T05:18:34.073Z,98218.25
2023-03-20T05:21:52.787Z,98216.81
2023-03-20T05:25:09.765Z,98218.81
2023-03-20T05:28:34.261Z,98218.03
2023-03-20T05:32:07.749Z,98167.97
2023-03-20T05:36:00.400Z,98214.38
2023-03-20T05:39:29.161Z,98215.34
2023-03-20T05:43:29.355Z,98214.31
2023-03-20T05:46:49.611Z,98223.84
2023-03-20T05:50:02.017Z,98215.97
2023-03-20T05:53:16.773Z,98219.94
2023-03-20T05:57:06.155Z,98217.88
2023-03-20T06:00:53.562Z,98225.56
2023-03-20T06:04:21.941Z,98216.19
2023-03-20T06:08:19.932Z,98226.75
2023-03-20T06:11:25.501Z,98221.69
2023-03-20T06:14:34.635Z,98217.53
2023-03-20T06:17:44.768Z,98229.34
2023-03-20T06:20:56.768Z,98230.63
2023-03-20T06:24:03.767Z,98241.44
2023-03-20T06:27:10.123Z,98241.22
2023-03-20T06:30:21.217Z,98253.16
2023-03-20T06:33:29.144Z,98256.72
2023-03-20T06:36:38.219Z,98201.78
2023-03-20T06:39:50.560Z,98260.84
2023-03-20T06:42:57.963Z,98259.53
2023-03-20T06:46:15.898Z,98267.56
2023-03-20T06:49:21.626Z,98261.47
2023-03-20T06:52:28.226Z,98268.41
2023-03-20T06:55:56.410Z,98252.19
2023-03-20T06:59:02.801Z,98277.38
2023-03-20T07:02:13.064Z,98276.38
2023-03-20T07:05:20.771Z,98270.53
2023-03-20T07:08:26.405Z,98276.69
2023-03-20T07:11:32.893Z,98274.84
2023-03-20T07:14:39.320Z,98279.25
2023-03-20T07:17:53.392Z,98293.91
2023-03-20T07:21:06.534Z,98285.72
2023-03-20T07:24:13.644Z,98291.19
2023-03-20T07:27:28.045Z,98287.88
2023-03-20T07:30:35.815Z,98293.84
2023-03-20T07:33:44.187Z,98223.16
2023-03-20T07:36:50.550Z,98295.00
2023-03-20T07:39:59.126Z,98300.69
2023-03-20T07:43:09.566Z,98297.59
2023-03-20T07:46:33.412Z,98294.03
2023-03-20T07:49:43.508Z,98302.09
2023-03-20T07:52:54.294Z,98308.59
2023-03-20T07:56:00.909Z,98303.44
2023-03-20T07:59:06.888Z,98314.31
2023-03-20T08:02:18.988Z,98309.81
2023-03-20T08:05:27.567Z,98297.03
2023-03-20T08:08:34.212Z,98294.53
2023-03-20T08:11:39.683Z,98290.31
2023-03-20T08:14:46.369Z,98296.09
2023-03-20T08:17:52.018Z,98296.66
2023-03-20T08:21:01.134Z,98292.41
2023-03-20T08:24:06.893Z,98295.63
2023-03-20T08:27:13.284Z,98294.94
2023-03-20T08:30:19.442Z,98296.06
2023-03-20T08:33:25.968Z,98315.06
2023-03-20T08:36:34.409Z,98297.44
2023-03-20T08:39:40.680Z,98290.06
2023-03-20T08:42:46.513Z,98300.59
2023-03-20T08:45:53.057Z,98299.03
2023-03-20T08:48:59.249Z,98305.47
2023-03-20T08:52:08.878Z,98297.03
2023-03-20T08:55:15.999Z,98299.81
2023-03-20T08:58:24.634Z,98295.44
2023-03-20T09:01:45.988Z,98292.56
2023-03-20T09:04:55.066Z,98303.91
2023-03-20T09:08:04.254Z,98305.88
2023-03-20T09:11:11.077Z,98311.25
2023-03-20T09:14:16.911Z,98309.06
2023-03-20T09:17:23.252Z,98309.16
2023-03-20T09:20:29.221Z,98308.09
2023-03-20T09:23:38.395Z,98309.81
2023-03-20T09:26:43.972Z,98303.84
2023-03-20T09:29:50.350Z,98303.19
2023-03-20T09:32:56.105Z,98304.00
2023-03-20T09:36:02.412Z,98299.09
2023-03-20T09:39:10.652Z,98298.66
2023-03-20T09:42:35.390Z,98292.97
2023-03-20T09:46:00.164Z,98296.47
2023-03-20T09:49:25.700Z,98294.31
2023-03-20T09:52:36.408Z,98306.53
2023-03-20T09:55:47.862Z,98310.25
2023-03-20T09:58:59.240Z,98309.94
2023-03-20T10:02:20.438Z,98308.44
2023-03-20T10:05:30.866Z,98303.47
2023-03-20T10:08:40.232Z,98304.25
2023-03-20T10:12:30.982Z,98301.13
2023-03-20T10:15:52.364Z,98308.47
2023-03-20T10:19:13.485Z,98298.59
2023-03-20T10:22:29.402Z,98293.06
2023-03-20T10:25:41.133Z,98289.53
2023-03-20T10:29:01.501Z,98292.38
2023-03-20T10:32:20.209Z,98297.19
2023-03-20T10:35:44.402Z,98308.06
2023-03-20T10:39:04.827Z,98302.78
2023-03-20T10:42:23.059Z,98299.94
2023-03-20T10:45:51.959Z,98295.03
2023-03-20T10:49:06.727Z,98281.88
2023-03-20T10:52:21.069Z,98297.03
2023-03-20T10:55:38.225Z,98289.72
2023-03-20T10:58:52.988Z,98289.97
2023-03-20T11:02:05.395Z,98283.88
2023-03-20T11:05:27.936Z,98283.63
2023-03-20T11:08:51.197Z,98286.66
2023-03-20T11:12:05.426Z,98281.03
2023-03-20T11:15:35.165Z,98284.25
2023-03-20T11:18:53.321Z,98278.00
2023-03-20T11:22:26.386Z,98278.25
2023-03-20T11:25:51.100Z,98267.31
2023-03-20T11:29:02.281Z,98270.63
2023-03-20T11:32:30.299Z,98255.19
2023-03-20T11:35:39.616Z,98249.75
2023-03-20T11:38:49.253Z,98245.38
2023-03-20T11:41:59.299Z,98259.53
2023-03-20T11:45:09.388Z,98248.72
2023-03-20T11:48:23.876Z,98251.31
2023-03-20T11:51:32.704Z,98249.63
2023-03-20T11:54:49.557Z,98251.31
2023-03-20T11:58:01.295Z,98237.13
2023-03-20T12:01:15.515Z,98240.25
2023-03-20T12:04:24.185Z,98238.09
2023-03-20T12:07:41.267Z,98232.16
2023-03-20T12:10:57.258Z,98234.25
2023-03-20T12:14:09.795Z,98237.50
2023-03-20T12:17:38.459Z,98234.19
2023-03-20T12:21:01.098Z,98240.06
2023-03-20T12:24:22.718Z,98235.09
2023-03-20T12:27:36.946Z,98230.44
2023-03-20T12:31:01.648Z,98230.78
2023-03-20T12:34:19.335Z,98231.75
2023-03-20T12:37:26.829Z,98231.78
2023-03-20T12:40:58.122Z,98236.13
2023-03-20T12:44:32.470Z,98242.97
2023-03-20T12:48:25.714Z,98246.88
2023-03-20T12:51:55.616Z,98243.91
2023-03-20T12:55:29.850Z,98239.09
2023-03-20T12:58:49.417Z,98237.78
2023-03-20T13:02:06.892Z,98238.00
2023-03-20T13:05:39.030Z,98236.69
2023-03-20T13:09:53.126Z,98242.56
2023-03-20T13:13:23.446Z,98231.28
2023-03-20T13:16:52.563Z,98223.38
2023-03-20T13:20:27.291Z,98220.09
2023-03-20T13:23:49.354Z,98220.72
2023-03-20T13:27:11.033Z,98216.59
2023-03-20T13:30:36.437Z,98214.66
2023-03-20T13:33:58.493Z,98214.19
2023-03-20T13:37:24.404Z,98205.56
2023-03-20T13:40:37.183Z,98210.84
2023-03-20T13:43:54.597Z,98213.78
2023-03-20T13:47:06.772Z,98210.41
2023-03-20T13:50:43.938Z,98221.31
2023-03-20T13:54:11.142Z,98215.44
2023-03-20T13:57:41.505Z,98216.38
2023-03-20T14:01:00.574Z,98129.44
2023-03-20T14:04:17.072Z,98212.81
2023-03-20T14:07:39.077Z,98210.16
2023-03-20T14:10:45.435Z,98216.00
2023-03-20T14:13:57.855Z,98199.94
2023-03-20T14:17:20.825Z,98213.75
2023-03-20T14:20:36.554Z,98209.91
2023-03-20T14:23:52.046Z,98205.81
2023-03-20T14:27:04.216Z,98203.88
2023-03-20T14:30:47.232Z,98208.31
2023-03-20T14:34:17.763Z,98220.84
2023-03-20T14:37:38.515Z,98214.69
2023-03-20T14:41:00.288Z,98213.03
2023-03-20T14:44:29.680Z,98218.66
2023-03-20T14:47:52.267Z,98221.44
2023-03-20T14:51:21.703Z,98215.81
2023-03-20T14:54:31.872Z,98215.44
2023-03-20T14:57:55.477Z,98209.03
2023-03-20T15:01:08.843Z,98204.91
2023-03-20T15:04:31.536Z,98197.59
2023-03-20T15:07:43.046Z,98188.38
2023-03-20T15:10:57.045Z,98189.81
2023-03-20T15:14:11.773Z,98189.81
2023-03-20T15:17:25.487Z,98186.81
2023-03-20T15:20:32.055Z,98189.09
2023-03-20T15:23:38.292Z,98190.56
2023-03-20T15:26:43.849Z,98183.59
2023-03-20T15:29:57.812Z,98180.84
2023-03-20T15:33:04.165Z,98188.03
2023-03-20T15:36:14.545Z,98188.88
2023-03-20T15:39:25.133Z,98189.50
2023-03-20T15:42:33.710Z,98187.72
2023-03-20T15:45:45.605Z,98187.63
2023-03-20T15:48:52.621Z,98181.50
2023-03-20T15:52:05.374Z,98188.66
2023-03-20T15:55:21.473Z,98157.19
2023-03-20T15:58:32.185Z,98184.75
2023-03-20T16:01:42.146Z,98186.31
2023-03-20T16:04:54.816Z,98177.94
2023-03-20T16:08:16.305Z,98179.97
2023-03-20T16:11:21.963Z,98185.88
2023-03-20T16:14:32.842Z,98190.69
2023-03-20T16:17:41.415Z,98190.34
2023-03-20T16:20:58.001Z,98143.13
2023-03-20T16:24:10.165Z,98186.59
2023-03-20T16:27:27.363Z,98184.91
2023-03-20T16:30:36.390Z,98161.88
2023-03-20T16:33:48.011Z,98194.50
2023-03-20T16:36:59.492Z,98194.75
2023-03-20T16:40:18.043Z,98193.09
2023-03-20T16:43:30.830Z,98197.25
2023-03-20T16:46:37.455Z,98204.19
2023-03-20T16:50:18.452Z,98206.22
2023-03-20T16:53:24.990Z,98200.91
2023-03-20T16:56:38.384Z,98203.28
2023-03-20T16:59:45.250Z,98203.94
2023-03-20T17:03:01.123Z,98200.19
2023-03-20T17:06:35.912Z,98211.94
2023-03-20T17:10:02.864Z,98201.97
2023-03-20T17:13:09.505Z,98212.94
2023-03-20T17:16:22.612Z,98206.44
2023-03-20T17:19:29.301Z,98212.16
2023-03-20T17:22:39.061Z,98217.06
2023-03-20T17:25:46.012Z,98211.59
2023-03-20T17:28:51.729Z,98209.28
2023-03-20T17:31:58.074Z,98207.00
2023-03-20T17:35:03.674Z,98204.56
2023-03-20T17:38:21.553Z,98213.53
2023-03-20T17:41:29.018Z,98209.34
2023-03-20T17:44:35.503Z,98214.09
2023-03-20T17:47:41.461Z,98216.00
2023-03-20T17:50:50.754Z,98221.28
2023-03-20T17:53:59.605Z,98221.50
2023-03-20T17:57:05.955Z,98223.78
2023-03-20T18:00:20.580Z,98229.91
2023-03-20T18:03:27.279Z,98227.06
2023-03-20T18:06:37.158Z,98233.78
2023-03-20T18:09:47.906Z,98223.03
2023-03-20T18:12:53.437Z,98241.47
2023-03-20T18:16:01.918Z,98237.16
2023-03-20T18:19:07.720Z,98232.63
2023-03-20T18:22:14.532Z,98231.91
2023-03-20T18:25:23.570Z,98232.84
2023-03-20T18:28:30.000Z,98230.19
2023-03-20T18:31:35.711Z,98238.53
2023-03-20T18:34:42.211Z,98236.56
2023-03-20T18:37:48.004Z,98212.34
2023-03-20T18:40:57.169Z,98242.25
2023-03-20T18:44:02.881Z,98229.81
2023-03-20T18:47:10.095Z,98239.53
2023-03-20T18:50:29.896Z,98242.56
2023-03-20T18:53:36.312Z,98235.31
2023-03-20T18:56:44.901Z,98242.88
2023-03-20T18:59:51.316Z,98251.00
2023-03-20T19:02:59.154Z,98234.47
2023-03-20T19:06:08.039Z,98242.25
2023-03-20T19:09:15.977Z,98236.78
2023-03-20T19:12:25.156Z,98232.69
2023-03-20T19:15:35.755Z,98228.34
2023-03-20T19:18:42.245Z,98231.72
2023-03-20T19:21:48.062Z,98238.47
2023-03-20T19:24:54.578Z,98240.13
2023-03-20T19:28:03.648Z,98227.94
2023-03-20T19:31:10.823Z,98232.97
2023-03-20T19:34:51.902Z,98226.69
2023-03-20T19:37:42.855Z,98226.56
2023-03-20T19:40:53.312Z,98231.09
2023-03-20T19:44:03.248Z,98229.41
2023-03-20T19:47:08.972Z,98227.50
2023-03-20T19:50:31.972Z,98232.56
2023-03-20T19:53:37.642Z,98228.34
2023-03-20T19:56:45.709Z,98238.03
2023-03-20T19:59:54.290Z,98229.59
2023-03-20T20:03:01.616Z,98227.41
2023-03-20T20:06:08.181Z,98232.16
2023-03-20T20:09:14.812Z,98228.03
2023-03-20T20:12:20.527Z,98223.50
2023-03-20T20:15:32.318Z,98235.25
2023-03-20T20:18:38.343Z,98231.69
2023-03-20T20:22:25.232Z,98234.22
2023-03-20T20:25:12.738Z,98242.22
2023-03-20T20:28:22.210Z,98240.84
2023-03-20T20:31:34.919Z,98241.03
2023-03-20T20:38:37.136Z,98240.50
2023-03-20T20:41:34.913Z,98243.63
2023-03-20T20:44:40.508Z,98255.13
2023-03-20T20:47:52.046Z,98251.72
2023-03-20T20:51:03.713Z,98248.53
2023-03-20T20:54:10.860Z,98245.66
2023-03-20T20:57:16.422Z,98244.81
2023-03-20T21:00:37.222Z,98238.50
2023-03-20T21:03:54.430Z,98239.34
2023-03-20T21:07:10.819Z,98242.19
2023-03-20T21:10:21.428Z,98244.19
2023-03-20T21:13:28.168Z,98246.31
2023-03-20T21:16:33.804Z,98254.53
2023-03-20T21:19:45.645Z,98248.53
2023-03-20T21:22:51.001Z,98254.75
2023-03-20T21:25:57.497Z,98245.34
2023-03-20T21:29:02.895Z,98249.50
2023-03-20T21:32:11.413Z,98249.97
2023-03-20T21:35:19.845Z,98251.09
2023-03-20T21:41:52.189Z,98244.84
2023-03-20T21:45:56.035Z,98246.94
2023-03-20T21:48:58.817Z,98242.25
2023-03-20T21:59:24.118Z,98248.66
2023-03-20T22:02:25.292Z,98240.59
2023-03-20T22:13:16.252Z,98207.59
2023-03-20T22:16:41.106Z,98236.31
2023-03-20T22:30:26.027Z,98221.56
2023-03-20T22:34:05.192Z,98228.03
2023-03-20T22:37:24.618Z,98232.38
2023-03-20T22:44:24.750Z,98235.06
2023-03-20T22:46:55.902Z,98229.81
2023-03-20T22:50:01.382Z,98234.31
2023-03-20T22:53:07.665Z,98238.16
2023-03-20T22:56:15.221Z,98203.47
2023-03-20T22:59:24.218Z,98242.88
2023-03-20T23:02:29.589Z,98238.06
2023-03-20T23:05:36.679Z,98225.59
2023-03-20T23:08:50.705Z,98227.00
2023-03-20T23:12:00.202Z,98233.94
2023-03-20T23:15:10.363Z,98135.25
2023-03-20T23:18:17.256Z,98231.59
2023-03-20T23:21:22.690Z,98239.09
2023-03-20T23:24:29.345Z,98227.66
2023-03-20T23:27:35.040Z,98222.59
2023-03-20T23:30:49.821Z,98229.56
2023-03-20T23:34:01.229Z,98222.22
2023-03-20T23:37:07.636Z,98215.88
2023-03-20T23:40:14.862Z,98220.53
2023-03-20T23:43:21.794Z,98218.47
2023-03-20T23:46:30.062Z,98213.59
2023-03-20T23:49:36.357Z,98213.59
2023-03-20T23:56:09.594Z,98208.34
2023-03-20T23:59:21.607Z,98215.47
